sensor_id;sensor_type;location;lat;lon;timestamp;P1;durP1;ratioP1;P2;durP2;ratioP2
13435;SDS011;6790;49.520;8.504;2023-04-08T00:00:47;7.10;;;4.93;;
13435;SDS011;6790;49.520;8.504;2023-04-08T00:03:13;8.30;;;4.80;;
13435;SDS011;6790;49.520;8.504;2023-04-08T00:05:39;8.70;;;4.70;;
13435;SDS011;6790;49.520;8.504;2023-04-08T00:08:05;6.30;;;4.40;;
13435;SDS011;6790;49.520;8.504;2023-04-08T00:10:31;7.53;;;4.57;;
13435;SDS011;6790;49.520;8.504;2023-04-08T00:12:57;8.10;;;5.60;;
13435;SDS011;6790;49.520;8.504;2023-04-08T00:15:24;5.80;;;3.97;;
13435;SDS011;6790;49.520;8.504;2023-04-08T00:17:50;5.43;;;4.43;;
13435;SDS011;6790;49.520;8.504;2023-04-08T00:20:18;6.93;;;4.20;;
13435;SDS011;6790;49.520;8.504;2023-04-08T00:22:48;5.70;;;4.37;;
13435;SDS011;6790;49.520;8.504;2023-04-08T00:25:13;6.43;;;4.40;;
13435;SDS011;6790;49.520;8.504;2023-04-08T00:27:39;5.30;;;4.33;;
13435;SDS011;6790;49.520;8.504;2023-04-08T00:30:05;5.10;;;4.10;;
13435;SDS011;6790;49.520;8.504;2023-04-08T00:32:31;5.50;;;4.17;;
13435;SDS011;6790;49.520;8.504;2023-04-08T00:34:57;5.37;;;3.87;;
13435;SDS011;6790;49.520;8.504;2023-04-08T00:37:23;5.93;;;4.50;;
13435;SDS011;6790;49.520;8.504;2023-04-08T00:39:49;7.37;;;4.67;;
13435;SDS011;6790;49.520;8.504;2023-04-08T00:42:17;4.77;;;4.20;;
13435;SDS011;6790;49.520;8.504;2023-04-08T00:44:42;5.40;;;4.13;;
13435;SDS011;6790;49.520;8.504;2023-04-08T00:47:11;7.17;;;4.40;;
13435;SDS011;6790;49.520;8.504;2023-04-08T00:49:38;6.30;;;4.17;;
13435;SDS011;6790;49.520;8.504;2023-04-08T00:52:04;6.70;;;4.57;;
13435;SDS011;6790;49.520;8.504;2023-04-08T00:54:30;5.50;;;4.30;;
13435;SDS011;6790;49.520;8.504;2023-04-08T00:56:55;6.43;;;4.37;;
13435;SDS011;6790;49.520;8.504;2023-04-08T00:59:25;5.87;;;4.37;;
13435;SDS011;6790;49.520;8.504;2023-04-08T01:01:58;6.30;;;4.30;;
13435;SDS011;6790;49.520;8.504;2023-04-08T01:04:54;6.40;;;4.40;;
13435;SDS011;6790;49.520;8.504;2023-04-08T01:07:33;6.77;;;4.83;;
13435;SDS011;6790;49.520;8.504;2023-04-08T01:10:06;7.57;;;5.00;;
13435;SDS011;6790;49.520;8.504;2023-04-08T01:12:55;9.67;;;5.47;;
13435;SDS011;6790;49.520;8.504;2023-04-08T01:15:25;8.53;;;5.00;;
13435;SDS011;6790;49.520;8.504;2023-04-08T01:17:55;9.40;;;5.63;;
13435;SDS011;6790;49.520;8.504;2023-04-08T01:20:23;10.53;;;5.40;;
13435;SDS011;6790;49.520;8.504;2023-04-08T01:22:57;7.40;;;5.20;;
13435;SDS011;6790;49.520;8.504;2023-04-08T01:25:50;8.93;;;6.27;;
13435;SDS011;6790;49.520;8.504;2023-04-08T01:28:18;8.27;;;5.20;;
13435;SDS011;6790;49.520;8.504;2023-04-08T01:30:47;10.07;;;5.53;;
13435;SDS011;6790;49.520;8.504;2023-04-08T01:33:14;8.27;;;5.37;;
13435;SDS011;6790;49.520;8.504;2023-04-08T01:35:43;7.97;;;5.27;;
13435;SDS011;6790;49.520;8.504;2023-04-08T01:38:13;8.53;;;5.47;;
13435;SDS011;6790;49.520;8.504;2023-04-08T01:40:42;8.07;;;5.47;;
13435;SDS011;6790;49.520;8.504;2023-04-08T01:43:09;8.43;;;5.70;;
13435;SDS011;6790;49.520;8.504;2023-04-08T01:45:37;7.77;;;5.20;;
13435;SDS011;6790;49.520;8.504;2023-04-08T01:48:03;9.27;;;5.37;;
13435;SDS011;6790;49.520;8.504;2023-04-08T01:50:29;9.50;;;5.83;;
13435;SDS011;6790;49.520;8.504;2023-04-08T01:52:56;8.73;;;5.20;;
13435;SDS011;6790;49.520;8.504;2023-04-08T01:55:24;9.93;;;5.87;;
13435;SDS011;6790;49.520;8.504;2023-04-08T01:57:51;8.80;;;5.17;;
13435;SDS011;6790;49.520;8.504;2023-04-08T02:00:21;10.03;;;5.90;;
13435;SDS011;6790;49.520;8.504;2023-04-08T02:02:49;9.13;;;5.90;;
13435;SDS011;6790;49.520;8.504;2023-04-08T02:05:16;9.60;;;5.97;;
13435;SDS011;6790;49.520;8.504;2023-04-08T02:07:42;11.17;;;6.20;;
13435;SDS011;6790;49.520;8.504;2023-04-08T02:10:10;9.47;;;6.33;;
13435;SDS011;6790;49.520;8.504;2023-04-08T02:12:36;9.67;;;6.17;;
13435;SDS011;6790;49.520;8.504;2023-04-08T02:15:02;9.67;;;5.97;;
13435;SDS011;6790;49.520;8.504;2023-04-08T02:22:46;9.67;;;5.70;;
13435;SDS011;6790;49.520;8.504;2023-04-08T02:25:16;10.27;;;6.00;;
13435;SDS011;6790;49.520;8.504;2023-04-08T02:27:47;11.10;;;6.20;;
13435;SDS011;6790;49.520;8.504;2023-04-08T02:30:14;10.07;;;6.17;;
13435;SDS011;6790;49.520;8.504;2023-04-08T02:32:40;11.90;;;6.03;;
13435;SDS011;6790;49.520;8.504;2023-04-08T02:35:07;9.23;;;6.00;;
13435;SDS011;6790;49.520;8.504;2023-04-08T02:37:35;10.40;;;6.10;;
13435;SDS011;6790;49.520;8.504;2023-04-08T02:40:01;10.50;;;6.10;;
13435;SDS011;6790;49.520;8.504;2023-04-08T02:42:27;9.27;;;5.53;;
13435;SDS011;6790;49.520;8.504;2023-04-08T02:44:53;11.03;;;6.37;;
13435;SDS011;6790;49.520;8.504;2023-04-08T02:47:19;10.10;;;6.40;;
13435;SDS011;6790;49.520;8.504;2023-04-08T02:49:44;11.63;;;7.23;;
13435;SDS011;6790;49.520;8.504;2023-04-08T02:52:10;13.83;;;6.67;;
13435;SDS011;6790;49.520;8.504;2023-04-08T02:54:36;13.10;;;5.73;;
13435;SDS011;6790;49.520;8.504;2023-04-08T02:57:01;9.67;;;6.47;;
13435;SDS011;6790;49.520;8.504;2023-04-08T02:59:27;9.47;;;6.27;;
13435;SDS011;6790;49.520;8.504;2023-04-08T03:01:53;9.80;;;5.90;;
13435;SDS011;6790;49.520;8.504;2023-04-08T03:04:18;11.33;;;7.00;;
13435;SDS011;6790;49.520;8.504;2023-04-08T03:06:44;10.93;;;6.70;;
13435;SDS011;6790;49.520;8.504;2023-04-08T03:09:10;11.60;;;6.33;;
13435;SDS011;6790;49.520;8.504;2023-04-08T03:11:35;9.33;;;5.73;;
13435;SDS011;6790;49.520;8.504;2023-04-08T03:14:01;7.73;;;6.13;;
13435;SDS011;6790;49.520;8.504;2023-04-08T03:16:27;11.83;;;6.67;;
13435;SDS011;6790;49.520;8.504;2023-04-08T03:18:52;11.57;;;7.10;;
13435;SDS011;6790;49.520;8.504;2023-04-08T03:21:18;12.27;;;6.97;;
13435;SDS011;6790;49.520;8.504;2023-04-08T03:23:44;10.30;;;6.17;;
13435;SDS011;6790;49.520;8.504;2023-04-08T03:26:10;10.50;;;6.43;;
13435;SDS011;6790;49.520;8.504;2023-04-08T03:28:36;10.50;;;6.87;;
13435;SDS011;6790;49.520;8.504;2023-04-08T03:31:02;11.40;;;6.83;;
13435;SDS011;6790;49.520;8.504;2023-04-08T03:33:28;9.07;;;6.20;;
13435;SDS011;6790;49.520;8.504;2023-04-08T03:35:54;12.67;;;7.27;;
13435;SDS011;6790;49.520;8.504;2023-04-08T03:38:20;13.07;;;6.57;;
13435;SDS011;6790;49.520;8.504;2023-04-08T03:40:46;12.03;;;7.00;;
13435;SDS011;6790;49.520;8.504;2023-04-08T03:43:12;10.27;;;6.83;;
13435;SDS011;6790;49.520;8.504;2023-04-08T03:45:38;12.00;;;7.37;;
13435;SDS011;6790;49.520;8.504;2023-04-08T03:48:04;11.57;;;6.60;;
13435;SDS011;6790;49.520;8.504;2023-04-08T03:50:31;10.43;;;7.27;;
13435;SDS011;6790;49.520;8.504;2023-04-08T03:52:57;12.63;;;6.90;;
13435;SDS011;6790;49.520;8.504;2023-04-08T03:55:23;9.93;;;6.73;;
13435;SDS011;6790;49.520;8.504;2023-04-08T03:57:48;11.73;;;7.07;;
13435;SDS011;6790;49.520;8.504;2023-04-08T04:00:14;10.17;;;6.63;;
13435;SDS011;6790;49.520;8.504;2023-04-08T04:02:40;10.97;;;6.50;;
13435;SDS011;6790;49.520;8.504;2023-04-08T04:05:06;13.80;;;7.23;;
13435;SDS011;6790;49.520;8.504;2023-04-08T04:07:32;12.43;;;6.90;;
13435;SDS011;6790;49.520;8.504;2023-04-08T04:09:58;11.93;;;6.93;;
13435;SDS011;6790;49.520;8.504;2023-04-08T04:12:23;11.27;;;7.30;;
13435;SDS011;6790;49.520;8.504;2023-04-08T04:14:49;11.47;;;6.97;;
13435;SDS011;6790;49.520;8.504;2023-04-08T04:17:15;13.30;;;7.40;;
13435;SDS011;6790;49.520;8.504;2023-04-08T04:19:40;11.93;;;7.03;;
13435;SDS011;6790;49.520;8.504;2023-04-08T04:22:06;11.33;;;7.53;;
13435;SDS011;6790;49.520;8.504;2023-04-08T04:24:32;11.73;;;7.03;;
13435;SDS011;6790;49.520;8.504;2023-04-08T04:26:57;13.33;;;7.90;;
13435;SDS011;6790;49.520;8.504;2023-04-08T04:29:23;12.53;;;7.63;;
13435;SDS011;6790;49.520;8.504;2023-04-08T04:31:49;12.97;;;7.10;;
13435;SDS011;6790;49.520;8.504;2023-04-08T04:34:14;11.50;;;7.53;;
13435;SDS011;6790;49.520;8.504;2023-04-08T04:36:41;12.23;;;7.43;;
13435;SDS011;6790;49.520;8.504;2023-04-08T04:39:07;9.77;;;7.37;;
13435;SDS011;6790;49.520;8.504;2023-04-08T04:41:33;13.80;;;8.27;;
13435;SDS011;6790;49.520;8.504;2023-04-08T04:44:02;12.33;;;7.43;;
13435;SDS011;6790;49.520;8.504;2023-04-08T04:46:28;12.90;;;7.47;;
13435;SDS011;6790;49.520;8.504;2023-04-08T04:48:54;12.27;;;7.40;;
13435;SDS011;6790;49.520;8.504;2023-04-08T04:51:20;12.60;;;7.97;;
13435;SDS011;6790;49.520;8.504;2023-04-08T04:53:46;13.23;;;7.80;;
13435;SDS011;6790;49.520;8.504;2023-04-08T04:56:13;11.63;;;7.33;;
13435;SDS011;6790;49.520;8.504;2023-04-08T04:58:38;13.03;;;7.60;;
13435;SDS011;6790;49.520;8.504;2023-04-08T05:01:04;13.80;;;7.10;;
13435;SDS011;6790;49.520;8.504;2023-04-08T05:03:30;12.87;;;7.70;;
13435;SDS011;6790;49.520;8.504;2023-04-08T05:05:56;15.70;;;7.37;;
13435;SDS011;6790;49.520;8.504;2023-04-08T05:08:21;12.33;;;7.33;;
13435;SDS011;6790;49.520;8.504;2023-04-08T05:10:47;10.43;;;6.30;;
13435;SDS011;6790;49.520;8.504;2023-04-08T05:13:14;10.87;;;7.20;;
13435;SDS011;6790;49.520;8.504;2023-04-08T05:15:41;11.10;;;7.03;;
13435;SDS011;6790;49.520;8.504;2023-04-08T05:18:07;10.80;;;6.83;;
13435;SDS011;6790;49.520;8.504;2023-04-08T05:20:33;10.30;;;6.57;;
13435;SDS011;6790;49.520;8.504;2023-04-08T05:22:58;12.57;;;6.83;;
13435;SDS011;6790;49.520;8.504;2023-04-08T05:25:24;11.10;;;7.40;;
13435;SDS011;6790;49.520;8.504;2023-04-08T05:27:50;11.40;;;7.80;;
13435;SDS011;6790;49.520;8.504;2023-04-08T05:30:16;11.17;;;6.80;;
13435;SDS011;6790;49.520;8.504;2023-04-08T05:32:42;12.37;;;7.07;;
13435;SDS011;6790;49.520;8.504;2023-04-08T05:35:08;10.43;;;7.30;;
13435;SDS011;6790;49.520;8.504;2023-04-08T05:37:34;10.67;;;6.97;;
13435;SDS011;6790;49.520;8.504;2023-04-08T05:40:00;9.17;;;6.50;;
13435;SDS011;6790;49.520;8.504;2023-04-08T05:42:25;8.53;;;6.00;;
13435;SDS011;6790;49.520;8.504;2023-04-08T05:44:51;7.87;;;5.80;;
13435;SDS011;6790;49.520;8.504;2023-04-08T05:47:20;9.23;;;6.00;;
13435;SDS011;6790;49.520;8.504;2023-04-08T05:49:45;8.83;;;6.30;;
13435;SDS011;6790;49.520;8.504;2023-04-08T05:52:11;6.67;;;5.43;;
13435;SDS011;6790;49.520;8.504;2023-04-08T05:54:36;9.80;;;5.40;;
13435;SDS011;6790;49.520;8.504;2023-04-08T05:57:02;10.37;;;5.40;;
13435;SDS011;6790;49.520;8.504;2023-04-08T05:59:28;9.13;;;5.33;;
13435;SDS011;6790;49.520;8.504;2023-04-08T06:01:53;8.73;;;5.93;;
13435;SDS011;6790;49.520;8.504;2023-04-08T06:04:20;8.80;;;5.60;;
13435;SDS011;6790;49.520;8.504;2023-04-08T06:06:46;7.40;;;5.40;;
13435;SDS011;6790;49.520;8.504;2023-04-08T06:09:12;6.83;;;5.43;;
13435;SDS011;6790;49.520;8.504;2023-04-08T06:11:37;7.37;;;5.47;;
13435;SDS011;6790;49.520;8.504;2023-04-08T06:14:03;8.00;;;6.40;;
13435;SDS011;6790;49.520;8.504;2023-04-08T06:16:29;9.40;;;6.50;;
13435;SDS011;6790;49.520;8.504;2023-04-08T06:18:54;9.80;;;5.40;;
13435;SDS011;6790;49.520;8.504;2023-04-08T06:21:20;8.30;;;6.00;;
13435;SDS011;6790;49.520;8.504;2023-04-08T06:23:46;7.10;;;5.00;;
13435;SDS011;6790;49.520;8.504;2023-04-08T06:26:11;7.30;;;5.23;;
13435;SDS011;6790;49.520;8.504;2023-04-08T06:28:37;7.37;;;5.23;;
13435;SDS011;6790;49.520;8.504;2023-04-08T06:31:03;6.43;;;4.93;;
13435;SDS011;6790;49.520;8.504;2023-04-08T06:33:29;6.03;;;5.17;;
13435;SDS011;6790;49.520;8.504;2023-04-08T06:36:04;7.90;;;5.73;;
13435;SDS011;6790;49.520;8.504;2023-04-08T06:38:32;7.27;;;5.50;;
13435;SDS011;6790;49.520;8.504;2023-04-08T06:41:05;7.30;;;5.70;;
13435;SDS011;6790;49.520;8.504;2023-04-08T06:43:31;6.80;;;5.13;;
13435;SDS011;6790;49.520;8.504;2023-04-08T06:46:03;7.27;;;5.47;;
13435;SDS011;6790;49.520;8.504;2023-04-08T06:48:33;10.53;;;6.27;;
13435;SDS011;6790;49.520;8.504;2023-04-08T06:51:01;6.97;;;5.33;;
13435;SDS011;6790;49.520;8.504;2023-04-08T06:53:31;7.10;;;5.40;;
13435;SDS011;6790;49.520;8.504;2023-04-08T06:55:57;6.13;;;5.17;;
13435;SDS011;6790;49.520;8.504;2023-04-08T06:58:25;7.50;;;5.27;;
13435;SDS011;6790;49.520;8.504;2023-04-08T07:00:52;6.70;;;5.30;;
13435;SDS011;6790;49.520;8.504;2023-04-08T07:03:19;6.63;;;5.50;;
13435;SDS011;6790;49.520;8.504;2023-04-08T07:05:45;7.47;;;6.37;;
13435;SDS011;6790;49.520;8.504;2023-04-08T07:08:11;8.00;;;5.77;;
13435;SDS011;6790;49.520;8.504;2023-04-08T07:10:43;9.30;;;5.90;;
13435;SDS011;6790;49.520;8.504;2023-04-08T07:13:08;6.70;;;5.67;;
13435;SDS011;6790;49.520;8.504;2023-04-08T07:15:37;8.00;;;5.73;;
13435;SDS011;6790;49.520;8.504;2023-04-08T07:18:02;7.23;;;5.43;;
13435;SDS011;6790;49.520;8.504;2023-04-08T07:20:28;6.83;;;5.53;;
13435;SDS011;6790;49.520;8.504;2023-04-08T07:22:54;7.03;;;5.00;;
13435;SDS011;6790;49.520;8.504;2023-04-08T07:25:20;5.90;;;4.87;;
13435;SDS011;6790;49.520;8.504;2023-04-08T07:27:46;6.53;;;5.10;;
13435;SDS011;6790;49.520;8.504;2023-04-08T07:30:15;7.10;;;5.40;;
13435;SDS011;6790;49.520;8.504;2023-04-08T07:32:41;6.03;;;5.27;;
13435;SDS011;6790;49.520;8.504;2023-04-08T07:35:06;6.57;;;4.83;;
13435;SDS011;6790;49.520;8.504;2023-04-08T07:37:32;6.60;;;4.97;;
13435;SDS011;6790;49.520;8.504;2023-04-08T07:39:58;7.40;;;5.87;;
13435;SDS011;6790;49.520;8.504;2023-04-08T07:42:23;6.83;;;5.40;;
13435;SDS011;6790;49.520;8.504;2023-04-08T07:45:03;8.77;;;6.00;;
13435;SDS011;6790;49.520;8.504;2023-04-08T07:47:30;7.67;;;5.30;;
13435;SDS011;6790;49.520;8.504;2023-04-08T07:49:55;7.00;;;5.10;;
13435;SDS011;6790;49.520;8.504;2023-04-08T07:52:21;6.80;;;5.63;;
13435;SDS011;6790;49.520;8.504;2023-04-08T07:54:46;8.20;;;5.40;;
13435;SDS011;6790;49.520;8.504;2023-04-08T07:57:12;6.93;;;5.50;;
13435;SDS011;6790;49.520;8.504;2023-04-08T07:59:38;6.20;;;5.10;;
13435;SDS011;6790;49.520;8.504;2023-04-08T08:02:03;9.43;;;4.93;;
13435;SDS011;6790;49.520;8.504;2023-04-08T08:04:29;8.13;;;5.17;;
13435;SDS011;6790;49.520;8.504;2023-04-08T08:06:56;8.17;;;5.60;;
13435;SDS011;6790;49.520;8.504;2023-04-08T08:09:22;8.10;;;5.57;;
13435;SDS011;6790;49.520;8.504;2023-04-08T08:11:47;8.53;;;5.47;;
13435;SDS011;6790;49.520;8.504;2023-04-08T08:14:13;7.77;;;5.80;;
13435;SDS011;6790;49.520;8.504;2023-04-08T08:16:39;7.07;;;5.40;;
13435;SDS011;6790;49.520;8.504;2023-04-08T08:19:05;7.27;;;5.43;;
13435;SDS011;6790;49.520;8.504;2023-04-08T08:21:34;8.00;;;5.80;;
13435;SDS011;6790;49.520;8.504;2023-04-08T08:24:01;7.73;;;5.53;;
13435;SDS011;6790;49.520;8.504;2023-04-08T08:26:27;6.93;;;5.07;;
13435;SDS011;6790;49.520;8.504;2023-04-08T08:28:53;7.50;;;5.33;;
13435;SDS011;6790;49.520;8.504;2023-04-08T08:31:19;8.07;;;5.70;;
13435;SDS011;6790;49.520;8.504;2023-04-08T08:33:45;7.17;;;5.80;;
13435;SDS011;6790;49.520;8.504;2023-04-08T08:36:11;7.20;;;5.27;;
13435;SDS011;6790;49.520;8.504;2023-04-08T08:38:37;6.67;;;4.97;;
13435;SDS011;6790;49.520;8.504;2023-04-08T08:41:03;6.97;;;5.67;;
13435;SDS011;6790;49.520;8.504;2023-04-08T08:43:29;6.67;;;5.43;;
13435;SDS011;6790;49.520;8.504;2023-04-08T08:45:58;7.67;;;5.70;;
13435;SDS011;6790;49.520;8.504;2023-04-08T08:48:24;8.70;;;5.97;;
13435;SDS011;6790;49.520;8.504;2023-04-08T08:50:50;6.20;;;5.47;;
13435;SDS011;6790;49.520;8.504;2023-04-08T08:53:16;7.37;;;5.40;;
13435;SDS011;6790;49.520;8.504;2023-04-08T08:55:43;6.83;;;5.47;;
13435;SDS011;6790;49.520;8.504;2023-04-08T08:58:09;8.43;;;6.10;;
13435;SDS011;6790;49.520;8.504;2023-04-08T09:03:18;7.60;;;6.30;;
13435;SDS011;6790;49.520;8.504;2023-04-08T09:05:56;7.27;;;5.60;;
13435;SDS011;6790;49.520;8.504;2023-04-08T09:08:26;7.57;;;5.30;;
13435;SDS011;6790;49.520;8.504;2023-04-08T09:11:10;7.40;;;5.77;;
13435;SDS011;6790;49.520;8.504;2023-04-08T09:13:45;10.20;;;5.43;;
13435;SDS011;6790;49.520;8.504;2023-04-08T09:16:12;7.70;;;6.17;;
13435;SDS011;6790;49.520;8.504;2023-04-08T09:18:42;9.30;;;6.33;;
13435;SDS011;6790;49.520;8.504;2023-04-08T09:21:10;7.07;;;6.17;;
13435;SDS011;6790;49.520;8.504;2023-04-08T09:23:41;7.13;;;6.00;;
13435;SDS011;6790;49.520;8.504;2023-04-08T09:26:21;7.60;;;5.97;;
13435;SDS011;6790;49.520;8.504;2023-04-08T09:31:31;10.37;;;6.27;;
13435;SDS011;6790;49.520;8.504;2023-04-08T09:34:11;9.20;;;5.90;;
13435;SDS011;6790;49.520;8.504;2023-04-08T09:36:40;9.67;;;5.90;;
13435;SDS011;6790;49.520;8.504;2023-04-08T09:39:06;7.63;;;6.03;;
13435;SDS011;6790;49.520;8.504;2023-04-08T09:41:36;8.17;;;6.47;;
13435;SDS011;6790;49.520;8.504;2023-04-08T09:44:03;7.87;;;6.37;;
13435;SDS011;6790;49.520;8.504;2023-04-08T09:54:33;8.90;;;5.90;;
13435;SDS011;6790;49.520;8.504;2023-04-08T10:00:17;8.10;;;6.30;;
13435;SDS011;6790;49.520;8.504;2023-04-08T10:05:49;8.00;;;5.80;;
13435;SDS011;6790;49.520;8.504;2023-04-08T10:08:17;7.70;;;5.80;;
13435;SDS011;6790;49.520;8.504;2023-04-08T10:10:43;8.03;;;6.00;;
13435;SDS011;6790;49.520;8.504;2023-04-08T10:13:10;7.17;;;6.47;;
13435;SDS011;6790;49.520;8.504;2023-04-08T10:15:36;8.20;;;5.90;;
13435;SDS011;6790;49.520;8.504;2023-04-08T10:23:02;8.07;;;6.33;;
13435;SDS011;6790;49.520;8.504;2023-04-08T10:25:44;7.67;;;6.10;;
13435;SDS011;6790;49.520;8.504;2023-04-08T10:30:46;8.07;;;6.23;;
13435;SDS011;6790;49.520;8.504;2023-04-08T10:33:16;7.87;;;6.30;;
13435;SDS011;6790;49.520;8.504;2023-04-08T10:35:58;7.10;;;5.70;;
13435;SDS011;6790;49.520;8.504;2023-04-08T10:38:27;8.07;;;6.03;;
13435;SDS011;6790;49.520;8.504;2023-04-08T10:40:52;10.13;;;6.53;;
13435;SDS011;6790;49.520;8.504;2023-04-08T10:43:19;10.17;;;6.77;;
13435;SDS011;6790;49.520;8.504;2023-04-08T10:45:44;8.13;;;6.47;;
13435;SDS011;6790;49.520;8.504;2023-04-08T10:50:52;9.97;;;6.77;;
13435;SDS011;6790;49.520;8.504;2023-04-08T10:53:31;9.83;;;6.50;;
13435;SDS011;6790;49.520;8.504;2023-04-08T10:56:06;12.13;;;7.37;;
13435;SDS011;6790;49.520;8.504;2023-04-08T10:58:47;9.60;;;6.07;;
13435;SDS011;6790;49.520;8.504;2023-04-08T11:01:15;7.30;;;6.37;;
13435;SDS011;6790;49.520;8.504;2023-04-08T11:03:41;8.20;;;6.70;;
13435;SDS011;6790;49.520;8.504;2023-04-08T11:06:07;8.70;;;6.80;;
13435;SDS011;6790;49.520;8.504;2023-04-08T11:08:33;8.30;;;7.07;;
13435;SDS011;6790;49.520;8.504;2023-04-08T11:11:01;8.20;;;6.53;;
13435;SDS011;6790;49.520;8.504;2023-04-08T11:13:28;8.10;;;6.20;;
13435;SDS011;6790;49.520;8.504;2023-04-08T11:15:54;8.23;;;6.67;;
13435;SDS011;6790;49.520;8.504;2023-04-08T11:18:22;16.47;;;6.27;;
13435;SDS011;6790;49.520;8.504;2023-04-08T11:20:57;8.07;;;6.40;;
13435;SDS011;6790;49.520;8.504;2023-04-08T11:23:26;6.40;;;5.13;;
13435;SDS011;6790;49.520;8.504;2023-04-08T11:25:51;7.00;;;5.03;;
13435;SDS011;6790;49.520;8.504;2023-04-08T11:28:18;8.27;;;5.43;;
13435;SDS011;6790;49.520;8.504;2023-04-08T11:30:44;6.57;;;4.73;;
13435;SDS011;6790;49.520;8.504;2023-04-08T11:33:12;7.97;;;4.83;;
13435;SDS011;6790;49.520;8.504;2023-04-08T11:35:49;7.70;;;5.33;;
13435;SDS011;6790;49.520;8.504;2023-04-08T11:38:20;7.87;;;5.73;;
13435;SDS011;6790;49.520;8.504;2023-04-08T11:40:51;6.90;;;6.07;;
13435;SDS011;6790;49.520;8.504;2023-04-08T11:43:25;7.97;;;5.73;;
13435;SDS011;6790;49.520;8.504;2023-04-08T11:45:51;6.90;;;5.63;;
13435;SDS011;6790;49.520;8.504;2023-04-08T11:48:17;7.83;;;6.27;;
13435;SDS011;6790;49.520;8.504;2023-04-08T11:50:43;7.60;;;6.10;;
13435;SDS011;6790;49.520;8.504;2023-04-08T11:55:45;8.37;;;5.93;;
13435;SDS011;6790;49.520;8.504;2023-04-08T11:58:12;6.13;;;5.53;;
13435;SDS011;6790;49.520;8.504;2023-04-08T12:00:38;7.23;;;6.23;;
13435;SDS011;6790;49.520;8.504;2023-04-08T12:03:05;10.33;;;6.23;;
13435;SDS011;6790;49.520;8.504;2023-04-08T12:05:31;7.80;;;5.90;;
13435;SDS011;6790;49.520;8.504;2023-04-08T12:07:57;6.57;;;5.27;;
13435;SDS011;6790;49.520;8.504;2023-04-08T12:10:23;6.77;;;4.50;;
13435;SDS011;6790;49.520;8.504;2023-04-08T12:12:51;6.17;;;5.40;;
13435;SDS011;6790;49.520;8.504;2023-04-08T12:15:17;6.97;;;6.03;;
13435;SDS011;6790;49.520;8.504;2023-04-08T12:17:43;6.63;;;5.33;;
13435;SDS011;6790;49.520;8.504;2023-04-08T12:20:09;7.77;;;5.60;;
13435;SDS011;6790;49.520;8.504;2023-04-08T12:22:35;7.13;;;5.77;;
13435;SDS011;6790;49.520;8.504;2023-04-08T12:25:01;6.97;;;5.50;;
13435;SDS011;6790;49.520;8.504;2023-04-08T12:27:28;7.43;;;5.53;;
13435;SDS011;6790;49.520;8.504;2023-04-08T12:29:57;7.37;;;5.43;;
13435;SDS011;6790;49.520;8.504;2023-04-08T12:32:24;7.63;;;5.40;;
13435;SDS011;6790;49.520;8.504;2023-04-08T12:34:58;6.30;;;5.10;;
13435;SDS011;6790;49.520;8.504;2023-04-08T12:37:24;9.47;;;5.63;;
13435;SDS011;6790;49.520;8.504;2023-04-08T12:39:50;7.53;;;5.80;;
13435;SDS011;6790;49.520;8.504;2023-04-08T12:42:16;7.40;;;6.03;;
13435;SDS011;6790;49.520;8.504;2023-04-08T12:44:42;7.17;;;5.53;;
13435;SDS011;6790;49.520;8.504;2023-04-08T12:47:07;8.40;;;6.53;;
13435;SDS011;6790;49.520;8.504;2023-04-08T12:49:33;7.13;;;6.33;;
13435;SDS011;6790;49.520;8.504;2023-04-08T12:51:59;6.57;;;5.17;;
13435;SDS011;6790;49.520;8.504;2023-04-08T12:54:24;7.93;;;6.00;;
13435;SDS011;6790;49.520;8.504;2023-04-08T12:56:58;7.40;;;6.07;;
13435;SDS011;6790;49.520;8.504;2023-04-08T12:59:25;6.03;;;5.30;;
13435;SDS011;6790;49.520;8.504;2023-04-08T13:01:51;8.43;;;5.90;;
13435;SDS011;6790;49.520;8.504;2023-04-08T13:04:16;7.87;;;6.30;;
13435;SDS011;6790;49.520;8.504;2023-04-08T13:06:43;6.70;;;5.60;;
13435;SDS011;6790;49.520;8.504;2023-04-08T13:09:10;10.90;;;7.73;;
13435;SDS011;6790;49.520;8.504;2023-04-08T13:11:36;8.03;;;6.50;;
13435;SDS011;6790;49.520;8.504;2023-04-08T13:14:01;9.17;;;6.33;;
13435;SDS011;6790;49.520;8.504;2023-04-08T13:16:27;8.80;;;6.30;;
13435;SDS011;6790;49.520;8.504;2023-04-08T13:18:53;7.57;;;6.20;;
13435;SDS011;6790;49.520;8.504;2023-04-08T13:21:22;10.67;;;6.20;;
13435;SDS011;6790;49.520;8.504;2023-04-08T13:24:14;6.20;;;5.17;;
13435;SDS011;6790;49.520;8.504;2023-04-08T13:26:39;6.77;;;5.40;;
13435;SDS011;6790;49.520;8.504;2023-04-08T13:29:05;6.33;;;4.63;;
13435;SDS011;6790;49.520;8.504;2023-04-08T13:31:31;6.00;;;4.20;;
13435;SDS011;6790;49.520;8.504;2023-04-08T13:33:56;6.20;;;4.43;;
13435;SDS011;6790;49.520;8.504;2023-04-08T13:36:22;5.70;;;4.70;;
13435;SDS011;6790;49.520;8.504;2023-04-08T13:38:48;5.53;;;4.77;;
13435;SDS011;6790;49.520;8.504;2023-04-08T13:41:19;6.47;;;4.70;;
13435;SDS011;6790;49.520;8.504;2023-04-08T13:43:49;6.07;;;5.13;;
13435;SDS011;6790;49.520;8.504;2023-04-08T13:46:15;8.70;;;6.27;;
13435;SDS011;6790;49.520;8.504;2023-04-08T13:48:40;6.73;;;5.23;;
13435;SDS011;6790;49.520;8.504;2023-04-08T13:51:06;8.10;;;5.47;;
13435;SDS011;6790;49.520;8.504;2023-04-08T13:53:32;5.90;;;5.00;;
13435;SDS011;6790;49.520;8.504;2023-04-08T13:55:58;5.70;;;5.10;;
13435;SDS011;6790;49.520;8.504;2023-04-08T13:58:23;5.90;;;4.97;;
13435;SDS011;6790;49.520;8.504;2023-04-08T14:00:50;6.43;;;4.80;;
13435;SDS011;6790;49.520;8.504;2023-04-08T14:03:16;5.87;;;4.77;;
13435;SDS011;6790;49.520;8.504;2023-04-08T14:05:42;7.50;;;5.77;;
13435;SDS011;6790;49.520;8.504;2023-04-08T14:08:09;5.97;;;4.77;;
13435;SDS011;6790;49.520;8.504;2023-04-08T14:10:36;5.83;;;4.90;;
13435;SDS011;6790;49.520;8.504;2023-04-08T14:13:01;5.57;;;4.43;;
13435;SDS011;6790;49.520;8.504;2023-04-08T14:15:27;5.53;;;4.60;;
13435;SDS011;6790;49.520;8.504;2023-04-08T14:17:53;6.47;;;5.27;;
13435;SDS011;6790;49.520;8.504;2023-04-08T14:20:19;7.13;;;4.97;;
13435;SDS011;6790;49.520;8.504;2023-04-08T14:22:45;6.83;;;5.03;;
13435;SDS011;6790;49.520;8.504;2023-04-08T14:25:11;8.80;;;7.33;;
13435;SDS011;6790;49.520;8.504;2023-04-08T14:27:36;6.33;;;5.33;;
13435;SDS011;6790;49.520;8.504;2023-04-08T14:30:02;5.60;;;4.97;;
13435;SDS011;6790;49.520;8.504;2023-04-08T14:32:28;7.47;;;5.10;;
13435;SDS011;6790;49.520;8.504;2023-04-08T14:34:57;7.63;;;5.20;;
13435;SDS011;6790;49.520;8.504;2023-04-08T14:37:23;23.27;;;16.43;;
13435;SDS011;6790;49.520;8.504;2023-04-08T14:39:48;27.10;;;17.20;;
13435;SDS011;6790;49.520;8.504;2023-04-08T14:42:14;7.00;;;5.07;;
13435;SDS011;6790;49.520;8.504;2023-04-08T14:44:42;6.40;;;4.60;;
13435;SDS011;6790;49.520;8.504;2023-04-08T14:47:08;5.40;;;4.63;;
13435;SDS011;6790;49.520;8.504;2023-04-08T14:49:34;6.53;;;5.07;;
13435;SDS011;6790;49.520;8.504;2023-04-08T14:52:00;7.67;;;5.43;;
13435;SDS011;6790;49.520;8.504;2023-04-08T14:54:26;8.53;;;5.47;;
13435;SDS011;6790;49.520;8.504;2023-04-08T14:56:52;7.30;;;5.33;;
13435;SDS011;6790;49.520;8.504;2023-04-08T14:59:18;8.43;;;5.27;;
13435;SDS011;6790;49.520;8.504;2023-04-08T15:01:43;6.43;;;5.00;;
13435;SDS011;6790;49.520;8.504;2023-04-08T15:04:09;8.20;;;5.30;;
13435;SDS011;6790;49.520;8.504;2023-04-08T15:06:35;13.43;;;8.97;;
13435;SDS011;6790;49.520;8.504;2023-04-08T15:09:02;7.13;;;5.70;;
13435;SDS011;6790;49.520;8.504;2023-04-08T15:11:28;5.57;;;4.80;;
13435;SDS011;6790;49.520;8.504;2023-04-08T15:13:54;8.90;;;4.77;;
13435;SDS011;6790;49.520;8.504;2023-04-08T15:16:20;4.80;;;4.00;;
13435;SDS011;6790;49.520;8.504;2023-04-08T15:18:46;7.13;;;4.30;;
13435;SDS011;6790;49.520;8.504;2023-04-08T15:21:14;5.73;;;3.67;;
13435;SDS011;6790;49.520;8.504;2023-04-08T15:23:40;6.33;;;4.27;;
13435;SDS011;6790;49.520;8.504;2023-04-08T15:26:08;4.63;;;3.80;;
13435;SDS011;6790;49.520;8.504;2023-04-08T15:28:35;5.20;;;3.23;;
13435;SDS011;6790;49.520;8.504;2023-04-08T15:31:02;5.67;;;3.93;;
13435;SDS011;6790;49.520;8.504;2023-04-08T15:33:31;5.70;;;3.47;;
13435;SDS011;6790;49.520;8.504;2023-04-08T15:36:05;5.10;;;3.70;;